Lockland, Ohio
Current Conditions -  °F | °C
As of 10:15 AM on Monday 24 Nov 2014 (Local Time) from KHAO Reporting Station
Moderate Rain Moderate Rain  
Wind Chill: 56°   Ceiling: 5000
Heat Index: 56°   Visibility: 3mi
Dew Point: 52°   Wind: 20mph
Humidity: 87%   Direction: 220°SW
Pressure: 29.38"   Gusts: 35mph
Location:  39.236°N, 84.4599°W
Report Text: KHAO 241515Z AUTO 22017G30KT 3SM RA BR FEW030 BKN050 OVC070 13/11 A2938 RMK AO2 PK WND 22030/1514 P0007 T01330111
Loading
Personal Weather Stations






























Interactive Weather Map New forecast layout! Learn more

10-Day Weather Forecast

Advertisements
Track Severe Weather on mobile